Time;durP1;ratioP1;P1;durP2;ratioP2;P2;SDS_P1;SDS_P2;PMS_P1;PMS_P2;Temp;Humidity;BMP_temperature;BMP_pressure;BME280_temperature;BME280_humidity;BME280_pressure;Samples;Min_cycle;Max_cycle;Signal;HPM_P1;HPM_P2
2023/08/18 00:00:08;;;;;;;;;17.50;14.00;;;;;26.77;42.05;100932.47;5037319;28;45460;-65
2023/08/18 00:02:34;;;;;;;;;22.00;19.50;;;;;26.74;42.23;100923.78;5038086;28;46953;-65
2023/08/18 00:04:59;;;;;;;;;17.25;16.00;;;;;26.73;41.83;100924.75;5046799;28;45258;-65
2023/08/18 00:07:25;;;;;;;;;16.50;15.50;;;;;26.72;41.69;100920.34;5038557;28;45226;-65
2023/08/18 00:09:50;;;;;;;;;20.25;16.75;;;;;26.69;42.43;100923.25;5038866;28;45487;-65
2023/08/18 00:12:15;;;;;;;;;18.50;17.75;;;;;26.66;42.46;100912.75;5038490;28;45163;-65
2023/08/18 00:14:41;;;;;;;;;22.25;20.50;;;;;26.63;42.58;100908.44;5038414;28;45298;-65
2023/08/18 00:17:06;;;;;;;;;24.25;19.25;;;;;26.60;42.54;100912.25;5038997;28;45247;-65
2023/08/18 00:19:31;;;;;;;;;22.25;18.75;;;;;26.58;42.47;100916.06;5055178;28;45550;-65
2023/08/18 00:21:57;;;;;;;;;20.50;20.50;;;;;26.55;42.78;100919.84;5047948;28;46853;-65
2023/08/18 00:24:22;;;;;;;;;15.75;15.50;;;;;26.51;42.78;100910.28;5048934;28;45452;-65
2023/08/18 00:26:47;;;;;;;;;21.50;19.00;;;;;26.53;42.98;100912.88;5041603;28;45254;-65
2023/08/18 00:29:14;;;;;;;;;18.00;18.00;;;;;26.49;42.58;100912.25;5041943;28;45465;-65
2023/08/18 00:31:39;;;;;;;;;21.50;20.50;;;;;26.46;42.26;100907.09;5028602;28;45455;-64
2023/08/18 00:34:05;;;;;;;;;19.75;19.25;;;;;26.46;42.27;100899.00;5041760;28;45327;-65
2023/08/18 00:36:31;;;;;;;;;23.75;19.50;;;;;26.44;42.45;100907.22;5028216;28;45328;-65
2023/08/18 00:38:58;;;;;;;;;22.50;20.25;;;;;26.42;43.25;100903.78;5041890;28;46204;-65
2023/08/18 00:41:24;;;;;;;;;25.75;21.25;;;;;26.40;42.63;100894.09;5041256;28;46394;-65
2023/08/18 00:43:49;;;;;;;;;24.25;21.00;;;;;26.38;42.63;100893.38;5049762;28;45323;-65
2023/08/18 00:46:17;;;;;;;;;24.25;20.25;;;;;26.35;42.83;100902.56;5043431;28;45469;-65
2023/08/18 00:48:43;;;;;;;;;15.75;14.25;;;;;26.34;43.37;100894.56;5041540;28;45483;-65
2023/08/18 00:51:10;;;;;;;;;22.50;19.75;;;;;26.32;42.64;100902.78;5026475;28;47377;-65
2023/08/18 00:53:36;;;;;;;;;24.50;22.75;;;;;26.30;42.75;100903.88;5031474;28;45317;-65
2023/08/18 00:56:02;;;;;;;;;17.00;17.00;;;;;26.27;43.50;100900.44;5046884;28;45494;-65
2023/08/18 00:58:29;;;;;;;;;18.50;18.50;;;;;26.25;42.91;100904.22;5048982;28;45490;-65
2023/08/18 01:00:54;;;;;;;;;18.00;17.00;;;;;26.23;43.08;100904.38;5041139;28;46425;-65
2023/08/18 01:03:20;;;;;;;;;20.50;19.00;;;;;26.19;43.08;100900.19;5041305;28;45242;-65
2023/08/18 01:05:45;;;;;;;;;14.25;14.25;;;;;26.16;43.57;100895.03;5041095;28;45471;-65
2023/08/18 01:08:10;;;;;;;;;19.50;17.00;;;;;26.13;43.85;100897.97;5053905;28;45479;-65
2023/08/18 01:11:00;;;;;;;;;20.75;20.75;;;;;26.11;43.71;100897.22;5041604;28;48386;-65
2023/08/18 01:13:50;;;;;;;;;22.50;21.00;;;;;26.07;43.52;100890.38;5040934;28;45490;-65
2023/08/18 01:16:23;;;;;;;;;24.50;21.00;;;;;26.05;43.69;100895.88;5041281;28;45226;-65
2023/08/18 01:18:50;;;;;;;;;22.00;19.75;;;;;26.02;43.54;100887.16;5028029;28;45381;-65
2023/08/18 01:21:17;;;;;;;;;21.25;19.25;;;;;25.99;43.68;100880.19;5040810;28;45645;-65
2023/08/18 01:23:43;;;;;;;;;23.25;19.00;;;;;26.00;44.37;100883.72;5040897;28;45576;-65
2023/08/18 01:26:08;;;;;;;;;24.00;22.00;;;;;25.96;43.99;100875.88;5033739;28;45421;-65
2023/08/18 01:28:35;;;;;;;;;23.75;21.75;;;;;25.94;44.35;100876.97;5040414;28;45456;-65
2023/08/18 01:31:06;;;;;;;;;23.75;21.25;;;;;25.94;43.91;100880.53;5040447;28;45408;-65
2023/08/18 01:33:37;;;;;;;;;25.00;21.00;;;;;25.93;44.29;100884.19;5040934;28;45494;-65
2023/08/18 01:36:12;;;;;;;;;17.75;15.75;;;;;25.90;43.79;100878.16;5021339;28;45436;-65
2023/08/18 01:38:38;;;;;;;;;21.75;19.75;;;;;25.88;44.19;100877.47;5040744;28;45456;-65
2023/08/18 01:41:08;;;;;;;;;21.75;20.75;;;;;25.89;44.02;100884.56;5040401;28;45333;-65
2023/08/18 01:43:34;;;;;;;;;22.50;21.00;;;;;25.85;44.25;100878.56;5037714;28;45346;-65
2023/08/18 01:46:03;;;;;;;;;22.25;21.50;;;;;25.84;44.07;100876.84;5043157;28;45335;-65
2023/08/18 01:48:28;;;;;;;;;22.75;22.00;;;;;25.82;44.21;100883.31;5040766;28;45406;-65
2023/08/18 01:50:54;;;;;;;;;22.25;18.50;;;;;25.79;44.52;100879.88;5053543;28;45311;-65
2023/08/18 01:53:19;;;;;;;;;22.75;20.00;;;;;25.77;44.85;100871.06;5040761;28;45192;-65
2023/08/18 01:55:44;;;;;;;;;25.50;25.00;;;;;25.77;44.36;100871.06;5040213;28;45452;-65
2023/08/18 01:58:10;;;;;;;;;18.50;18.50;;;;;25.75;44.60;100877.53;5040405;28;45491;-65
2023/08/18 02:00:35;;;;;;;;;26.50;20.75;;;;;25.73;44.33;100871.41;5040373;28;46852;-65
2023/08/18 02:03:00;;;;;;;;;25.25;22.50;;;;;25.71;44.49;100865.28;5039643;28;45191;-65
2023/08/18 02:05:26;;;;;;;;;23.00;20.75;;;;;25.65;44.44;100858.53;5040117;28;45540;-65
2023/08/18 02:07:51;;;;;;;;;20.75;19.75;;;;;25.69;44.70;100864.56;5040481;28;45444;-65
2023/08/18 02:10:16;;;;;;;;;25.50;24.75;;;;;25.68;45.16;100858.28;5039836;28;51223;-65
2023/08/18 02:12:43;;;;;;;;;26.50;21.50;;;;;25.67;44.94;100863.81;5040285;28;45245;-65
2023/08/18 02:15:08;;;;;;;;;27.00;24.50;;;;;25.65;45.18;100861.25;5040174;28;45328;-65
2023/08/18 02:17:34;;;;;;;;;25.25;24.00;;;;;25.63;45.08;100866.75;5050267;28;45321;-65
2023/08/18 02:19:59;;;;;;;;;24.00;20.50;;;;;25.61;44.57;100851.69;5043440;28;45307;-65
2023/08/18 02:22:25;;;;;;;;;22.50;22.00;;;;;25.60;45.07;100852.66;5039924;28;45359;-65
2023/08/18 02:24:51;;;;;;;;;20.50;19.00;;;;;25.56;45.02;100854.72;5039905;28;45305;-65
2023/08/18 02:27:18;;;;;;;;;22.25;22.25;;;;;25.57;45.00;100852.88;5039946;28;45343;-65
2023/08/18 02:29:43;;;;;;;;;31.75;27.50;;;;;25.54;44.95;100859.34;5039771;28;46132;-65
2023/08/18 02:32:09;;;;;;;;;23.25;21.25;;;;;25.53;45.49;100857.63;5039786;28;52981;-65
2023/08/18 02:34:35;;;;;;;;;25.50;22.75;;;;;25.52;45.67;100858.63;5038349;28;45620;-65
2023/08/18 02:37:00;;;;;;;;;23.50;20.50;;;;;25.51;45.48;100869.47;5015143;28;45860;-65
2023/08/18 02:39:25;;;;;;;;;24.00;22.75;;;;;25.49;45.30;100861.53;5039757;28;45430;-65
2023/08/18 02:41:55;;;;;;;;;23.75;21.50;;;;;25.47;45.55;100858.09;5033807;28;45260;-65
2023/08/18 02:44:20;;;;;;;;;33.25;27.75;;;;;25.45;45.35;100844.75;5035664;28;45359;-65
2023/08/18 02:46:47;;;;;;;;;25.00;22.00;;;;;25.44;45.39;100851.13;5039672;28;45454;-65
2023/08/18 02:49:12;;;;;;;;;26.50;24.50;;;;;25.43;45.28;100848.53;5052787;28;46289;-65
2023/08/18 02:51:38;;;;;;;;;25.00;21.25;;;;;25.41;45.33;100842.44;5039651;28;45253;-65
2023/08/18 02:54:03;;;;;;;;;27.25;25.25;;;;;25.39;45.83;100849.75;5039544;28;46557;-65
2023/08/18 02:56:31;;;;;;;;;25.00;24.25;;;;;25.38;45.41;100848.88;5039709;28;45380;-65
2023/08/18 02:58:57;;;;;;;;;25.75;24.00;;;;;25.35;45.59;100845.56;5039402;28;46295;-65
2023/08/18 03:01:22;;;;;;;;;27.25;25.00;;;;;25.34;45.87;100847.38;5039659;28;45310;-65
2023/08/18 03:03:47;;;;;;;;;26.25;24.75;;;;;25.31;45.96;100839.56;5039617;28;45430;-65
2023/08/18 03:06:13;;;;;;;;;22.25;22.25;;;;;25.30;46.26;100841.38;5039555;28;45376;-65
2023/08/18 03:08:39;;;;;;;;;23.25;22.50;;;;;25.27;45.68;100830.84;5039317;28;45990;-65
2023/08/18 03:11:05;;;;;;;;;28.00;26.75;;;;;25.25;45.56;100832.78;5039410;28;45840;-65
2023/08/18 03:13:31;;;;;;;;;27.25;26.00;;;;;25.24;45.82;100835.59;5039270;28;45329;-65
2023/08/18 03:15:56;;;;;;;;;26.25;21.75;;;;;25.22;46.28;100829.47;5039443;28;45306;-65
2023/08/18 03:18:22;;;;;;;;;23.75;22.25;;;;;25.21;45.95;100815.19;5039184;28;45281;-65
2023/08/18 03:20:48;;;;;;;;;26.25;23.75;;;;;25.19;46.08;100814.41;5039414;28;45465;-65
2023/08/18 03:23:15;;;;;;;;;30.50;25.50;;;;;25.17;46.14;100824.44;5039214;28;45269;-65
2023/08/18 03:25:42;;;;;;;;;31.75;25.75;;;;;25.16;46.39;100814.66;5039157;28;45421;-65
2023/08/18 03:28:08;;;;;;;;;24.75;23.25;;;;;25.14;46.31;100816.59;5038906;28;46344;-65
2023/08/18 03:30:40;;;;;;;;;22.50;22.50;;;;;25.12;46.02;100818.56;5039087;28;45360;-65
2023/08/18 03:33:06;;;;;;;;;30.00;27.75;;;;;25.09;46.18;100822.34;5039174;28;45237;-65
2023/08/18 03:35:32;;;;;;;;;27.00;24.25;;;;;25.09;46.39;100826.84;5029479;28;45576;-65
2023/08/18 03:38:01;;;;;;;;;26.50;23.00;;;;;25.06;46.15;100822.56;5048415;28;46236;-65
2023/08/18 03:40:26;;;;;;;;;28.00;23.00;;;;;25.02;46.82;100821.06;5037827;28;45514;-65
2023/08/18 03:42:52;;;;;;;;;26.00;22.50;;;;;25.03;46.60;100817.41;5026051;28;45344;-65
2023/08/18 03:45:17;;;;;;;;;27.00;26.25;;;;;25.03;46.36;100819.22;5039090;28;45494;-65
2023/08/18 03:47:42;;;;;;;;;29.75;27.00;;;;;25.02;46.68;100817.50;5038873;28;46174;-65
2023/08/18 03:50:08;;;;;;;;;27.75;24.00;;;;;24.99;46.81;100806.03;5038966;28;45278;-65
2023/08/18 03:52:34;;;;;;;;;28.25;24.50;;;;;24.99;47.00;100810.53;5039911;28;45236;-65
2023/08/18 03:54:59;;;;;;;;;28.75;25.25;;;;;24.99;46.41;100807.84;5042310;28;45549;-65
2023/08/18 03:57:24;;;;;;;;;32.25;27.50;;;;;24.98;46.48;100806.13;5042223;28;46118;-65
2023/08/18 03:59:50;;;;;;;;;23.00;23.00;;;;;24.97;46.98;100810.66;5042295;28;45355;-65
2023/08/18 04:02:15;;;;;;;;;28.25;24.50;;;;;24.96;46.52;100818.84;5055954;28;45320;-65
2023/08/18 04:04:40;;;;;;;;;28.00;26.00;;;;;24.95;46.91;100814.44;5042630;28;45147;-65
2023/08/18 04:07:06;;;;;;;;;28.25;25.25;;;;;24.93;46.83;100817.22;5041629;28;46067;-65
2023/08/18 04:09:31;;;;;;;;;26.00;24.50;;;;;24.92;46.75;100822.72;5042417;28;45206;-65
2023/08/18 04:11:56;;;;;;;;;28.75;24.75;;;;;24.90;47.12;100817.44;5041668;28;49239;-65
2023/08/18 04:14:21;;;;;;;;;30.25;27.25;;;;;24.88;47.18;100816.72;5042246;28;45317;-65
2023/08/18 04:16:47;;;;;;;;;25.75;24.00;;;;;24.81;46.97;100802.00;5041702;28;50832;-65
2023/08/18 04:19:13;;;;;;;;;28.50;24.75;;;;;24.85;47.36;100805.34;5042062;28;45413;-65
2023/08/18 04:21:38;;;;;;;;;26.75;25.00;;;;;24.82;46.97;100801.88;5041858;28;45323;-65
2023/08/18 04:24:04;;;;;;;;;33.25;28.00;;;;;24.80;46.96;100803.84;5041955;28;45442;-65
2023/08/18 04:26:30;;;;;;;;;31.75;27.25;;;;;24.81;47.01;100807.38;5055097;28;46962;-65
2023/08/18 04:28:55;;;;;;;;;25.00;22.00;;;;;24.80;47.31;100805.66;5041853;28;45407;-65
2023/08/18 04:31:21;;;;;;;;;31.75;25.50;;;;;24.77;47.57;100796.00;5041963;28;45252;-65
2023/08/18 04:33:47;;;;;;;;;27.75;27.50;;;;;24.78;47.10;100791.47;5041914;28;45455;-65
2023/08/18 04:36:12;;;;;;;;;30.25;25.25;;;;;24.76;47.49;100799.66;5027978;28;46036;-65
2023/08/18 04:38:37;;;;;;;;;28.75;25.25;;;;;24.75;47.50;100799.78;5041797;28;45319;-65
2023/08/18 04:41:03;;;;;;;;;23.50;20.75;;;;;24.73;47.56;100785.56;5041620;28;45514;-65
2023/08/18 04:43:29;;;;;;;;;25.50;25.25;;;;;24.73;47.67;100799.00;5038813;28;45429;-65
2023/08/18 04:45:55;;;;;;;;;31.00;28.00;;;;;24.69;47.77;100797.53;5041390;28;46265;-65
2023/08/18 04:48:24;;;;;;;;;30.75;27.50;;;;;24.65;47.48;100792.41;5041467;28;45352;-65
2023/08/18 04:50:49;;;;;;;;;29.50;25.25;;;;;24.62;47.99;100786.34;5041355;28;45656;-65
2023/08/18 04:53:16;;;;;;;;;30.25;24.25;;;;;24.60;47.69;100790.97;5041583;28;45343;-65
2023/08/18 04:55:42;;;;;;;;;29.25;26.25;;;;;24.60;47.83;100797.22;5041076;28;46138;-65
2023/08/18 04:58:12;;;;;;;;;27.00;25.75;;;;;24.57;47.81;100792.03;5041261;28;45331;-66
2023/08/18 05:00:44;;;;;;;;;28.50;26.75;;;;;24.58;47.41;100796.47;5041255;28;45255;-65
2023/08/18 05:03:10;;;;;;;;;35.25;28.25;;;;;24.55;47.81;100802.03;5031759;28;45490;-65
2023/08/18 05:05:39;;;;;;;;;29.75;26.75;;;;;24.52;47.96;100796.06;5039858;28;46105;-65
2023/08/18 05:08:05;;;;;;;;;27.00;24.75;;;;;24.48;47.90;100792.72;5041229;28;45392;-65
2023/08/18 05:10:31;;;;;;;;;35.75;29.00;;;;;24.47;48.08;100791.00;5041146;28;45345;-65
2023/08/18 05:12:56;;;;;;;;;23.50;23.00;;;;;24.45;47.98;100788.44;5041154;28;45497;-65
2023/08/18 05:15:22;;;;;;;;;28.50;26.75;;;;;24.46;48.10;100786.59;5040882;28;45307;-65
2023/08/18 05:17:50;;;;;;;;;33.75;29.50;;;;;24.44;48.31;100775.97;5041244;28;45841;-65
2023/08/18 05:20:16;;;;;;;;;31.75;26.75;;;;;24.45;48.30;100775.00;5040891;28;45553;-64
2023/08/18 05:22:41;;;;;;;;;30.75;27.25;;;;;24.46;48.12;100787.44;5040831;28;48014;-65
2023/08/18 05:25:08;;;;;;;;;42.75;36.50;;;;;24.45;48.25;100777.69;5035873;28;48167;-65
2023/08/18 05:27:34;;;;;;;;;35.25;32.75;;;;;24.45;48.23;100766.94;5039677;28;46059;-65
2023/08/18 05:29:59;;;;;;;;;30.25;27.25;;;;;24.47;48.12;100773.06;5041022;28;45332;-67
2023/08/18 05:32:25;;;;;;;;;34.50;28.25;;;;;24.46;48.07;100763.28;5040784;28;45254;-66
2023/08/18 05:34:55;;;;;;;;;32.25;30.25;;;;;24.47;48.23;100770.38;5036834;28;46547;-67
2023/08/18 05:37:20;;;;;;;;;44.50;35.75;;;;;24.47;48.32;100769.53;5031766;28;45181;-68
2023/08/18 05:39:46;;;;;;;;;29.00;27.50;;;;;24.50;48.38;100769.28;5026061;28;45263;-66
2023/08/18 05:42:11;;;;;;;;;28.50;26.00;;;;;24.50;48.28;100767.47;5039608;28;45544;-64
2023/08/18 05:44:36;;;;;;;;;25.75;23.25;;;;;24.52;48.49;100771.88;5038438;28;45495;-64
2023/08/18 05:47:03;;;;;;;;;25.50;25.00;;;;;24.52;48.68;100770.03;5040282;28;52950;-64
2023/08/18 05:49:28;;;;;;;;;28.50;26.75;;;;;24.53;48.41;100770.88;5040692;28;45281;-64
2023/08/18 05:51:54;;;;;;;;;31.75;29.25;;;;;24.56;48.70;100782.25;5040105;28;51070;-64
2023/08/18 05:54:19;;;;;;;;;29.75;28.25;;;;;24.56;48.61;100778.72;5039973;28;58609;-64
2023/08/18 05:56:45;;;;;;;;;25.50;25.50;;;;;24.57;48.82;100769.72;5040039;28;51975;-64
2023/08/18 05:59:10;;;;;;;;;31.00;28.25;;;;;24.57;48.55;100764.34;5040558;28;45828;-64
2023/08/18 06:01:36;;;;;;;;;27.25;24.50;;;;;24.60;48.64;100777.53;5040408;28;45349;-64
2023/08/18 06:04:01;;;;;;;;;25.50;24.25;;;;;24.59;48.88;100768.63;5039418;28;45363;-64
2023/08/18 06:06:27;;;;;;;;;26.00;23.50;;;;;24.65;48.73;100768.22;5039792;28;45310;-64
2023/08/18 06:08:52;;;;;;;;;25.25;23.75;;;;;24.67;48.60;100768.94;5040305;28;45352;-64
2023/08/18 06:11:17;;;;;;;;;30.25;27.25;;;;;24.69;48.94;100757.22;5040188;28;45308;-64
2023/08/18 06:13:43;;;;;;;;;24.50;23.50;;;;;24.71;48.90;100766.03;5039924;28;46192;-64
2023/08/18 06:16:08;;;;;;;;;32.50;27.25;;;;;24.74;48.55;100765.81;5039843;28;45201;-64
2023/08/18 06:18:33;;;;;;;;;33.25;29.25;;;;;24.74;49.20;100753.25;5040028;28;45543;-64
2023/08/18 06:20:59;;;;;;;;;23.50;22.75;;;;;24.77;49.43;100758.38;5039128;28;45244;-64
2023/08/18 06:23:24;;;;;;;;;24.50;24.00;;;;;24.79;49.25;100751.06;5039776;28;45389;-64
2023/08/18 06:25:49;;;;;;;;;27.25;25.75;;;;;24.83;49.02;100757.09;5039945;28;45305;-64
2023/08/18 06:28:14;;;;;;;;;25.50;24.25;;;;;24.86;49.33;100756.84;5039973;28;45300;-64
2023/08/18 06:30:40;;;;;;;;;26.75;24.75;;;;;24.90;49.48;100752.09;5039622;28;52750;-64
2023/08/18 06:33:05;;;;;;;;;25.25;24.00;;;;;24.94;49.10;100753.56;5039656;28;45311;-64
2023/08/18 06:35:30;;;;;;;;;27.00;25.25;;;;;24.97;49.51;100750.69;5030332;28;45277;-64
2023/08/18 06:37:56;;;;;;;;;29.50;28.75;;;;;25.02;48.94;100755.69;5035367;28;53296;-64
2023/08/18 06:40:21;;;;;;;;;27.75;26.50;;;;;25.06;49.51;100757.19;5039874;28;45466;-64
2023/08/18 06:42:48;;;;;;;;;25.75;25.00;;;;;25.09;49.50;100755.13;5034725;28;47130;-64
2023/08/18 06:45:13;;;;;;;;;27.75;23.25;;;;;25.12;49.38;100754.88;5039644;28;45385;-64
2023/08/18 06:47:40;;;;;;;;;27.25;23.25;;;;;25.17;49.72;100757.25;5039619;28;45316;-64
2023/08/18 06:50:06;;;;;;;;;27.75;25.50;;;;;25.20;49.16;100757.00;5037596;28;45329;-65
2023/08/18 06:52:34;;;;;;;;;27.50;24.75;;;;;25.22;49.79;100768.50;5039219;28;46082;-64
2023/08/18 06:55:00;;;;;;;;;24.50;24.50;;;;;25.26;49.51;100769.97;5039332;28;45256;-64
2023/08/18 06:57:26;;;;;;;;;26.00;23.00;;;;;25.30;49.36;100771.44;5039478;28;45364;-65
2023/08/18 06:59:51;;;;;;;;;26.25;24.75;;;;;25.35;50.00;100767.56;5039198;28;47432;-65
2023/08/18 07:02:17;;;;;;;;;28.00;25.25;;;;;25.38;49.67;100767.34;5039020;28;45368;-65
2023/08/18 07:04:42;;;;;;;;;21.00;20.75;;;;;25.42;49.31;100767.00;5039515;28;45399;-65
2023/08/18 07:07:07;;;;;;;;;24.00;24.00;;;;;25.46;49.71;100765.78;5039222;28;45247;-65
2023/08/18 07:09:33;;;;;;;;;27.75;23.75;;;;;25.51;49.34;100770.81;5039673;28;45245;-64
2023/08/18 07:11:59;;;;;;;;;27.50;24.75;;;;;25.56;49.50;100774.03;5038304;28;45470;-65
2023/08/18 07:14:24;;;;;;;;;25.50;24.50;;;;;25.61;49.84;100779.91;5039511;28;45441;-64
2023/08/18 07:16:50;;;;;;;;;24.50;22.00;;;;;25.63;49.83;100769.88;5039159;28;45265;-65
2023/08/18 07:19:15;;;;;;;;;25.00;24.50;;;;;25.69;49.61;100776.59;5039337;28;45490;-65
2023/08/18 07:21:40;;;;;;;;;25.75;25.25;;;;;25.74;49.52;100779.78;5038686;28;53237;-65
2023/08/18 07:24:07;;;;;;;;;28.25;23.50;;;;;25.77;49.58;100779.56;5034308;28;45450;-62
2023/08/18 07:26:32;;;;;;;;;24.75;23.25;;;;;25.78;49.36;100773.19;5032284;28;45389;-62
2023/08/18 07:28:58;;;;;;;;;27.00;23.50;;;;;25.87;49.74;100777.00;5032005;28;45589;-61
2023/08/18 07:31:23;;;;;;;;;22.25;21.75;;;;;25.91;49.72;100778.50;5035133;28;56505;-62
2023/08/18 07:33:48;;;;;;;;;26.75;24.00;;;;;25.95;49.25;100779.09;5032311;28;45339;-62
2023/08/18 07:36:14;;;;;;;;;23.75;22.50;;;;;26.00;49.64;100774.22;5036883;28;47355;-62
2023/08/18 07:38:39;;;;;;;;;25.25;23.25;;;;;26.05;49.65;100781.91;5042680;28;45182;-62
2023/08/18 07:41:05;;;;;;;;;26.75;23.00;;;;;26.08;49.29;100777.16;5041815;28;46223;-62
2023/08/18 07:43:30;;;;;;;;;25.75;22.50;;;;;26.12;49.44;100777.78;5039257;28;45327;-62
2023/08/18 07:45:56;;;;;;;;;24.00;22.00;;;;;26.18;49.56;100782.69;5041958;28;45782;-63
2023/08/18 07:48:21;;;;;;;;;21.75;20.50;;;;;26.23;49.65;100774.25;5035821;28;45326;-63
2023/08/18 07:50:47;;;;;;;;;27.75;24.00;;;;;26.27;49.84;100776.56;5042074;28;46150;-64
2023/08/18 07:53:12;;;;;;;;;22.25;21.00;;;;;26.32;49.85;100776.19;5033374;28;45317;-70
2023/08/18 07:55:38;;;;;;;;;22.75;21.75;;;;;26.40;49.77;100789.03;5033219;28;45344;-60
2023/08/18 07:58:04;;;;;;;;;25.25;23.25;;;;;26.44;49.90;100785.13;5015727;28;45696;-61
2023/08/18 08:00:30;;;;;;;;;21.00;18.75;;;;;26.47;49.47;100770.56;5035612;28;46078;-60
2023/08/18 08:02:57;;;;;;;;;21.75;21.25;;;;;26.50;49.98;100768.44;5035948;28;45526;-60
2023/08/18 08:05:22;;;;;;;;;21.50;19.25;;;;;26.58;49.88;100779.47;5033013;28;45468;-60
2023/08/18 08:07:49;;;;;;;;;23.00;20.00;;;;;26.65;50.08;100785.22;5032496;28;45333;-60
2023/08/18 08:10:14;;;;;;;;;17.50;16.00;;;;;26.69;49.82;100788.50;5032131;28;45738;-63
2023/08/18 08:12:40;;;;;;;;;25.50;21.50;;;;;26.73;49.95;100787.31;5033260;28;45242;-62
2023/08/18 08:15:11;;;;;;;;;21.00;17.25;;;;;26.78;49.89;100793.19;5034173;28;45254;-62
2023/08/18 08:17:37;;;;;;;;;19.25;19.00;;;;;26.84;50.30;100786.44;5031091;28;45325;-66
2023/08/18 08:20:37;;;;;;;;;19.25;18.00;;;;;26.87;50.34;100788.88;5038418;28;45501;-61
2023/08/18 08:22:56;;;;;;;;;16.50;16.50;;;;;26.92;49.74;100792.06;5034332;28;45478;-59
2023/08/18 08:25:21;;;;;;;;;20.25;18.00;;;;;26.97;50.26;100788.97;5028626;28;45427;-60
2023/08/18 08:27:51;;;;;;;;;19.50;17.50;;;;;27.00;49.55;100786.03;5033618;28;45722;-59
2023/08/18 08:30:16;;;;;;;;;21.50;19.00;;;;;27.04;49.95;100804.53;5049050;28;46213;-59
2023/08/18 08:32:42;;;;;;;;;19.50;19.50;;;;;27.08;49.63;100803.28;5045851;28;55518;-59
2023/08/18 08:35:07;;;;;;;;;19.00;16.75;;;;;27.15;49.71;100803.63;5034553;28;45352;-59
2023/08/18 08:37:33;;;;;;;;;17.50;15.25;;;;;27.20;50.18;100798.69;5034340;28;45464;-60
2023/08/18 08:39:58;;;;;;;;;20.75;17.00;;;;;27.24;50.25;100792.06;5026552;28;46124;-59
2023/08/18 08:42:23;;;;;;;;;21.25;20.50;;;;;27.32;50.56;100793.25;5038665;28;47317;-59
2023/08/18 08:44:50;;;;;;;;;21.25;19.50;;;;;27.36;49.81;100781.22;5053213;28;45270;-59
2023/08/18 08:47:19;;;;;;;;;15.00;15.00;;;;;27.43;50.46;100781.59;5041575;28;45318;-60
2023/08/18 08:49:45;;;;;;;;;19.50;18.00;;;;;27.47;50.51;100769.53;5053435;28;47248;-60
2023/08/18 08:52:13;;;;;;;;;22.00;18.50;;;;;27.55;50.41;100758.97;5041133;28;45222;-59
2023/08/18 08:54:53;;;;;;;;;20.00;19.25;;;;;27.62;50.27;100759.28;5048682;28;45344;-60
2023/08/18 08:57:21;;;;;;;;;16.50;15.50;;;;;27.66;50.58;100761.59;5045770;28;45260;-60
2023/08/18 08:59:46;;;;;;;;;19.75;18.75;;;;;27.72;50.07;100765.59;5050386;28;46059;-60
2023/08/18 09:02:12;;;;;;;;;17.50;17.50;;;;;27.76;49.92;100767.03;5044818;28;45236;-60
2023/08/18 09:04:37;;;;;;;;;17.75;17.75;;;;;27.81;50.36;100769.31;5041475;28;45226;-61
2023/08/18 09:07:03;;;;;;;;;25.25;24.25;;;;;27.85;49.90;100763.53;5040858;28;45199;-60
2023/08/18 09:09:28;;;;;;;;;21.50;20.25;;;;;27.89;50.50;100762.25;5041088;28;46316;-60
2023/08/18 09:12:02;;;;;;;;;22.75;18.25;;;;;27.94;50.28;100758.31;5040633;28;48617;-61
2023/08/18 09:14:27;;;;;;;;;19.50;15.50;;;;;27.97;49.74;100758.06;5041320;28;45233;-60
2023/08/18 09:16:52;;;;;;;;;18.75;15.50;;;;;28.01;50.04;100748.69;5040818;28;45226;-60
2023/08/18 09:19:18;;;;;;;;;19.75;18.00;;;;;28.03;50.28;100746.72;5049008;28;47921;-60
2023/08/18 09:21:43;;;;;;;;;15.75;15.75;;;;;28.10;50.08;100749.75;5040601;28;45363;-61
2023/08/18 09:24:09;;;;;;;;;17.25;15.75;;;;;28.12;49.93;100745.91;5051585;28;45415;-60
2023/08/18 09:26:34;;;;;;;;;11.25;10.50;;;;;28.13;49.71;100736.81;5043744;28;45397;-60
2023/08/18 09:29:00;;;;;;;;;15.00;14.25;;;;;28.21;49.93;100752.34;5040876;28;45481;-60
2023/08/18 09:31:25;;;;;;;;;18.25;17.25;;;;;28.27;50.39;100756.34;5040566;28;45282;-60
2023/08/18 09:33:51;;;;;;;;;14.25;14.25;;;;;28.32;49.78;100759.50;5041022;28;45483;-61
2023/08/18 09:36:18;;;;;;;;;14.50;14.50;;;;;28.40;50.03;100758.81;5026896;28;45242;-61
2023/08/18 09:38:44;;;;;;;;;16.00;14.00;;;;;28.48;50.08;100764.41;5040795;28;46031;-61
2023/08/18 09:41:11;;;;;;;;;15.75;13.75;;;;;28.57;50.26;100760.00;5040361;28;45314;-60
2023/08/18 09:43:37;;;;;;;;;14.00;14.00;;;;;28.63;50.12;100756.72;5036954;28;45180;-60
2023/08/18 09:46:03;;;;;;;;;17.25;15.50;;;;;28.74;50.32;100750.38;5029125;28;45599;-60
2023/08/18 09:48:34;;;;;;;;;14.50;14.50;;;;;28.85;50.14;100756.53;5039000;28;47537;-60
2023/08/18 09:51:00;;;;;;;;;20.75;18.00;;;;;28.97;50.00;100742.88;5039540;28;45301;-60
2023/08/18 09:53:30;;;;;;;;;16.00;14.50;;;;;29.10;49.94;100737.19;5040642;28;45192;-60
2023/08/18 09:56:00;;;;;;;;;15.00;14.25;;;;;29.22;49.97;100733.31;5040093;28;45424;-61
2023/08/18 09:58:40;;;;;;;;;16.75;15.25;;;;;29.40;50.03;100733.47;5040472;28;45457;-60
2023/08/18 10:01:08;;;;;;;;;15.75;14.50;;;;;29.55;50.05;100719.47;5027521;28;45321;-60
2023/08/18 10:03:37;;;;;;;;;14.50;13.00;;;;;29.74;49.91;100722.13;5040351;28;45243;-60
2023/08/18 10:06:06;;;;;;;;;14.50;14.50;;;;;29.93;49.60;100723.94;5038731;28;45284;-60
2023/08/18 10:08:32;;;;;;;;;13.50;12.50;;;;;30.11;49.96;100724.03;5039930;28;46309;-60
2023/08/18 10:10:59;;;;;;;;;14.50;11.25;;;;;30.28;49.54;100716.09;5039929;28;45352;-60
2023/08/18 10:13:25;;;;;;;;;13.25;13.25;;;;;30.45;49.75;100722.53;5039985;28;45260;-60
2023/08/18 10:15:52;;;;;;;;;14.25;11.25;;;;;30.59;49.76;100716.63;5039899;28;45434;-61
2023/08/18 10:18:18;;;;;;;;;18.00;16.50;;;;;30.72;49.02;100718.13;5034000;28;45468;-60
2023/08/18 10:20:52;;;;;;;;;16.00;16.00;;;;;30.85;49.65;100717.72;5039882;28;45397;-60
2023/08/18 10:23:18;;;;;;;;;13.50;13.50;;;;;30.95;49.61;100713.91;5039884;28;45166;-60
2023/08/18 10:25:45;;;;;;;;;15.75;14.25;;;;;31.07;48.45;100724.53;5039753;28;45575;-61
2023/08/18 10:28:14;;;;;;;;;15.75;12.75;;;;;31.14;48.41;100716.66;5039722;28;45277;-60
2023/08/18 10:30:40;;;;;;;;;18.50;17.25;;;;;31.23;48.63;100708.44;5040010;28;45352;-60
2023/08/18 10:33:07;;;;;;;;;14.00;12.50;;;;;31.28;48.46;100702.50;5039868;28;45233;-61
2023/08/18 10:35:34;;;;;;;;;12.75;12.75;;;;;31.35;48.57;100700.88;5030150;28;45588;-60
2023/08/18 10:38:04;;;;;;;;;12.25;12.00;;;;;31.42;47.90;100701.06;5029867;28;45387;-60
2023/08/18 10:40:29;;;;;;;;;11.75;10.00;;;;;31.47;47.98;100696.00;5028638;28;45313;-61
2023/08/18 10:43:03;;;;;;;;;9.00;9.00;;;;;31.52;48.15;100699.13;5036251;28;45517;-61
2023/08/18 10:45:29;;;;;;;;;15.25;14.50;;;;;31.54;48.09;100697.09;5047180;28;45658;-60
2023/08/18 10:48:03;;;;;;;;;16.25;12.75;;;;;31.60;47.96;100698.31;5038562;28;46185;-61
2023/08/18 10:50:30;;;;;;;;;11.00;11.00;;;;;31.67;47.66;100706.69;5039123;28;45299;-60
2023/08/18 10:52:55;;;;;;;;;16.50;12.75;;;;;31.70;48.13;100706.41;5039385;28;45243;-60
2023/08/18 10:55:22;;;;;;;;;12.50;12.25;;;;;31.73;47.07;100697.91;5039275;28;45360;-60
2023/08/18 10:57:48;;;;;;;;;13.50;10.50;;;;;31.75;48.13;100704.88;5038872;28;45957;-60
2023/08/18 11:00:15;;;;;;;;;11.75;10.75;;;;;31.79;47.37;100702.69;5039257;28;45285;-60
2023/08/18 11:02:41;;;;;;;;;10.50;9.25;;;;;31.81;47.30;100703.41;5039641;28;45348;-60
2023/08/18 11:05:07;;;;;;;;;12.25;10.00;;;;;31.84;47.06;100705.78;5038771;28;45482;-60